Time;durP1;ratioP1;P1;durP2;ratioP2;P2;SDS_P1;SDS_P2;PMS_P1;PMS_P2;Temp;Humidity;BMP_temperature;BMP_pressure;BME280_temperature;BME280_humidity;BME280_pressure;Samples;Min_cycle;Max_cycle;Signal;HPM_P1;HPM_P2
2022/04/13 00:00:59;;;;;;;7.37;3.10;;;14.40;99.90;;;;;;5072137;28;20399;-85
2022/04/13 00:03:25;;;;;;;4.33;3.53;;;14.30;99.90;;;;;;5056359;28;20779;-86
2022/04/13 00:05:50;;;;;;;4.77;3.17;;;14.30;99.90;;;;;;5074042;28;20382;-85
2022/04/13 00:08:16;;;;;;;5.00;2.90;;;14.20;99.90;;;;;;5073977;28;20525;-86
2022/04/13 00:10:43;;;;;;;6.97;3.00;;;14.20;99.90;;;;;;5073896;28;20463;-85
2022/04/13 00:13:09;;;;;;;5.90;2.90;;;14.00;99.90;;;;;;5055865;28;20404;-86
2022/04/13 00:15:35;;;;;;;4.35;2.90;;;14.10;99.90;;;;;;5073782;28;20392;-85
2022/04/13 00:18:06;;;;;;;4.30;3.00;;;14.10;99.90;;;;;;5073703;28;20856;-85
2022/04/13 00:20:31;;;;;;;5.00;2.87;;;13.90;99.90;;;;;;5073672;28;20406;-85
2022/04/13 00:22:57;;;;;;;4.50;2.90;;;13.70;99.90;;;;;;5073672;28;20856;-85
2022/04/13 00:25:22;;;;;;;6.10;3.17;;;13.70;99.90;;;;;;5073885;28;20767;-85
2022/04/13 00:27:48;;;;;;;3.67;3.20;;;13.80;99.90;;;;;;5073623;28;20390;-85
2022/04/13 00:30:14;;;;;;;4.63;3.05;;;13.80;99.90;;;;;;5073415;28;20475;-85
2022/04/13 00:32:39;;;;;;;5.40;4.57;;;13.60;99.90;;;;;;5073906;28;20403;-85
2022/04/13 00:35:05;;;;;;;5.20;4.10;;;13.60;99.90;;;;;;5073365;28;20462;-85
2022/04/13 00:37:32;;;;;;;5.25;4.85;;;13.50;99.90;;;;;;5073333;28;20435;-85
2022/04/13 00:39:58;;;;;;;4.82;4.43;;;13.50;99.90;;;;;;5072777;28;20752;-84
2022/04/13 00:42:24;;;;;;;5.43;4.90;;;13.50;99.90;;;;;;5055611;28;20471;-85
2022/04/13 00:44:50;;;;;;;7.80;4.85;;;13.50;99.90;;;;;;5073204;28;20411;-85
2022/04/13 00:47:16;;;;;;;6.38;5.78;;;13.60;99.90;;;;;;5073135;28;20387;-85
2022/04/13 00:49:42;;;;;;;6.30;5.80;;;13.50;99.90;;;;;;5073055;28;20433;-85
2022/04/13 00:52:10;;;;;;;6.65;5.97;;;13.60;99.90;;;;;;5073006;28;20457;-84
2022/04/13 00:54:40;;;;;;;6.18;5.70;;;13.80;99.90;;;;;;5072966;28;20384;-85
2022/04/13 00:57:09;;;;;;;6.10;5.60;;;13.80;99.90;;;;;;5073259;28;20429;-85
2022/04/13 00:59:37;;;;;;;5.90;5.40;;;13.70;99.90;;;;;;5072694;28;20392;-85
2022/04/13 01:02:06;;;;;;;6.28;5.68;;;13.50;99.90;;;;;;5054997;28;20764;-85
2022/04/13 01:04:34;;;;;;;5.68;5.28;;;13.50;99.90;;;;;;5073096;28;20801;-85
2022/04/13 01:07:02;;;;;;;5.22;4.72;;;13.50;99.90;;;;;;5072797;28;20394;-85
2022/04/13 01:09:30;;;;;;;5.75;5.25;;;13.40;99.90;;;;;;5072830;28;20386;-85
2022/04/13 01:11:56;;;;;;;5.63;5.20;;;13.40;99.90;;;;;;5072764;28;20423;-85
2022/04/13 01:14:21;;;;;;;6.13;3.38;;;13.30;99.90;;;;;;5072997;28;20884;-85
2022/04/13 01:16:47;;;;;;;3.90;3.50;;;13.50;99.90;;;;;;5072692;28;20786;-85
2022/04/13 01:19:16;;;;;;;4.28;3.65;;;13.60;99.90;;;;;;5072759;28;20379;-85
2022/04/13 01:21:52;;;;;;;4.45;4.03;;;13.70;99.90;;;;;;5072545;28;20864;-85
2022/04/13 01:24:18;;;;;;;3.92;3.53;;;13.50;99.90;;;;;;5072828;28;20450;-85
2022/04/13 01:26:43;;;;;;;4.80;4.38;;;13.50;99.90;;;;;;5072585;28;20797;-84
2022/04/13 01:29:09;;;;;;;7.03;3.83;;;13.50;99.90;;;;;;5072839;28;20872;-85
2022/04/13 01:31:35;;;;;;;3.80;3.45;;;13.40;99.90;;;;;;5072392;28;20883;-85
2022/04/13 01:34:01;;;;;;;4.97;3.30;;;13.20;99.90;;;;;;5072427;28;20384;-85
2022/04/13 01:36:27;;;;;;;6.13;3.67;;;13.20;99.90;;;;;;5072658;28;20896;-84
2022/04/13 01:38:53;;;;;;;4.65;3.30;;;13.30;99.90;;;;;;5072795;28;20868;-85
2022/04/13 01:41:19;;;;;;;5.20;3.15;;;13.30;99.90;;;;;;5072267;28;20448;-85
2022/04/13 01:43:45;;;;;;;5.57;3.10;;;13.30;99.90;;;;;;5072419;28;20877;-85
2022/04/13 01:46:11;;;;;;;4.72;2.88;;;13.30;99.90;;;;;;5072410;28;20387;-85
2022/04/13 01:48:36;;;;;;;4.93;3.17;;;13.00;99.90;;;;;;5054229;28;20388;-85
2022/04/13 01:51:02;;;;;;;4.47;3.00;;;12.90;99.90;;;;;;5071147;28;20387;-84
2022/04/13 01:53:28;;;;;;;3.60;3.30;;;12.90;99.90;;;;;;5070331;28;20388;-85
2022/04/13 01:55:54;;;;;;;7.20;3.30;;;12.90;99.90;;;;;;5070495;28;20406;-85
2022/04/13 01:58:20;;;;;;;4.27;3.50;;;13.00;99.90;;;;;;5072192;28;20379;-84
2022/04/13 02:00:46;;;;;;;4.25;3.33;;;12.90;99.90;;;;;;5071891;28;20423;-85
2022/04/13 02:03:11;;;;;;;4.33;3.93;;;12.80;99.90;;;;;;5071413;28;20449;-84
2022/04/13 02:05:37;;;;;;;4.32;3.70;;;12.60;99.90;;;;;;5072058;28;20875;-85
2022/04/13 02:08:03;;;;;;;5.88;3.60;;;12.70;99.90;;;;;;5072658;28;20386;-84
2022/04/13 02:10:28;;;;;;;3.38;2.90;;;12.70;99.90;;;;;;5072014;28;20387;-85
2022/04/13 02:12:54;;;;;;;4.65;3.28;;;12.80;99.90;;;;;;5071988;28;20414;-84
2022/04/13 02:15:20;;;;;;;5.65;3.67;;;12.90;99.90;;;;;;5072070;28;20475;-84
2022/04/13 02:17:46;;;;;;;4.15;3.50;;;12.90;99.90;;;;;;5072298;28;20870;-85
2022/04/13 02:20:12;;;;;;;3.63;3.33;;;12.90;99.90;;;;;;5071903;28;20376;-85
2022/04/13 02:22:38;;;;;;;3.80;3.50;;;12.80;99.90;;;;;;5071938;28;20391;-84
2022/04/13 02:25:05;;;;;;;6.53;3.92;;;12.70;99.90;;;;;;5053928;28;20396;-85
2022/04/13 02:27:31;;;;;;;4.07;3.38;;;12.80;99.90;;;;;;5071907;28;20395;-84
2022/04/13 02:29:57;;;;;;;5.05;3.47;;;12.70;99.90;;;;;;5071947;28;20390;-84
2022/04/13 02:32:23;;;;;;;5.23;3.60;;;12.50;99.90;;;;;;5071739;28;20407;-85
2022/04/13 02:34:49;;;;;;;4.47;4.13;;;12.50;99.90;;;;;;5071078;28;20395;-85
2022/04/13 02:37:16;;;;;;;5.30;4.80;;;12.30;99.90;;;;;;5053318;28;20400;-85
2022/04/13 02:39:42;;;;;;;4.80;4.30;;;12.30;99.90;;;;;;5070856;28;20514;-84
2022/04/13 02:42:07;;;;;;;5.10;4.70;;;12.30;99.90;;;;;;5071412;28;20857;-85
2022/04/13 02:44:33;;;;;;;5.45;4.95;;;12.40;99.90;;;;;;5070862;28;20380;-84
2022/04/13 02:46:59;;;;;;;5.60;4.72;;;12.30;99.90;;;;;;5071996;28;20398;-84
2022/04/13 02:49:26;;;;;;;4.65;4.18;;;12.30;99.90;;;;;;5053690;28;20382;-84
2022/04/13 02:51:52;;;;;;;4.70;4.30;;;12.20;99.90;;;;;;5071557;28;20395;-84
2022/04/13 02:54:17;;;;;;;4.83;4.17;;;12.30;99.90;;;;;;5071644;28;20379;-84
2022/04/13 02:56:43;;;;;;;7.10;4.77;;;12.30;99.90;;;;;;5071884;28;20914;-84
2022/04/13 02:59:09;;;;;;;4.43;4.03;;;12.30;99.90;;;;;;5053769;28;20399;-84
2022/04/13 03:01:35;;;;;;;5.43;4.45;;;12.20;99.90;;;;;;5071540;28;20399;-84
2022/04/13 03:04:01;;;;;;;4.43;4.03;;;12.10;99.90;;;;;;5073660;28;20384;-85
2022/04/13 03:06:26;;;;;;;7.00;4.50;;;12.20;99.90;;;;;;5075315;28;20380;-84
2022/04/13 03:08:52;;;;;;;5.13;4.60;;;12.10;99.90;;;;;;5074982;28;20437;-85
2022/04/13 03:11:17;;;;;;;5.23;4.83;;;12.20;99.90;;;;;;5074971;28;20391;-85
2022/04/13 03:13:43;;;;;;;5.13;4.73;;;12.00;99.90;;;;;;5075302;28;20399;-85
2022/04/13 03:16:09;;;;;;;4.88;4.45;;;12.00;99.90;;;;;;5075107;28;20375;-85
2022/04/13 03:18:34;;;;;;;4.82;4.43;;;12.00;99.90;;;;;;5075101;28;20383;-84
2022/04/13 03:21:00;;;;;;;5.72;5.10;;;11.90;99.90;;;;;;5074872;28;20384;-84
2022/04/13 03:23:25;;;;;;;5.97;4.88;;;12.00;99.90;;;;;;5075118;28;20759;-84
2022/04/13 03:25:52;;;;;;;5.40;4.90;;;12.10;99.90;;;;;;5074823;28;20781;-84
2022/04/13 03:28:19;;;;;;;5.75;5.15;;;12.00;99.90;;;;;;5056812;28;20876;-84
2022/04/13 03:30:45;;;;;;;4.10;3.70;;;11.90;99.90;;;;;;5074846;28;20388;-84
2022/04/13 03:33:11;;;;;;;4.30;3.90;;;12.10;99.90;;;;;;5074539;28;20400;-84
2022/04/13 03:35:36;;;;;;;6.32;3.90;;;12.10;99.90;;;;;;5074538;28;20388;-84
2022/04/13 03:38:02;;;;;;;4.18;3.78;;;12.10;99.90;;;;;;5074567;28;20379;-84
2022/04/13 03:40:28;;;;;;;5.10;3.73;;;12.20;99.90;;;;;;5074429;28;20391;-84
2022/04/13 03:42:53;;;;;;;4.87;3.57;;;12.20;99.90;;;;;;5056545;28;20437;-84
2022/04/13 03:45:19;;;;;;;3.80;3.33;;;12.00;99.90;;;;;;5074391;28;20384;-84
2022/04/13 03:47:45;;;;;;;3.93;3.53;;;11.80;99.90;;;;;;5074412;28;20391;-84
2022/04/13 03:50:11;;;;;;;4.43;3.73;;;11.80;99.90;;;;;;5074218;28;20387;-84
2022/04/13 03:52:37;;;;;;;4.15;3.75;;;11.60;99.90;;;;;;5074095;28;20396;-84
2022/04/13 03:55:05;;;;;;;4.35;3.83;;;11.60;99.90;;;;;;5056272;28;20892;-84
2022/04/13 03:57:31;;;;;;;4.68;4.28;;;11.60;99.90;;;;;;5074138;28;20843;-85
2022/04/13 03:59:57;;;;;;;4.93;4.53;;;11.50;99.90;;;;;;5073857;28;20422;-85
2022/04/13 04:02:22;;;;;;;4.47;4.07;;;11.40;99.90;;;;;;5074044;28;20743;-84
2022/04/13 04:04:48;;;;;;;4.53;4.13;;;11.50;99.90;;;;;;5074297;28;20394;-84
2022/04/13 04:07:14;;;;;;;4.43;4.13;;;11.50;99.90;;;;;;5073957;28;20787;-84
2022/04/13 04:09:39;;;;;;;4.70;4.07;;;11.50;99.90;;;;;;5073802;28;20379;-84
2022/04/13 04:12:05;;;;;;;5.33;3.63;;;11.60;99.90;;;;;;5073828;28;20411;-84
2022/04/13 04:14:31;;;;;;;4.18;3.33;;;11.70;99.90;;;;;;5055088;28;20472;-84
2022/04/13 04:16:57;;;;;;;3.83;3.30;;;12.10;99.90;;;;;;5055873;28;20906;-84
2022/04/13 04:19:22;;;;;;;3.87;3.33;;;11.70;99.90;;;;;;5056049;28;20388;-84
2022/04/13 04:21:48;;;;;;;4.80;3.47;;;11.70;99.90;;;;;;5073986;28;20383;-84
2022/04/13 04:24:13;;;;;;;3.47;3.00;;;11.40;99.90;;;;;;5073669;28;20513;-84
2022/04/13 04:26:39;;;;;;;4.68;3.17;;;11.50;99.90;;;;;;5073561;28;20384;-84
2022/04/13 04:29:05;;;;;;;4.15;3.60;;;11.40;99.90;;;;;;5073471;28;20388;-84
2022/04/13 04:34:15;;;;;;;7.00;3.80;;;11.30;99.90;;;;;;5073012;28;20438;-85
2022/04/13 04:36:41;;;;;;;5.18;4.00;;;11.40;99.90;;;;;;5073387;28;20379;-85
2022/04/13 04:39:07;;;;;;;5.63;4.15;;;11.40;99.90;;;;;;5054610;28;20435;-84
2022/04/13 04:41:33;;;;;;;5.10;4.10;;;11.50;99.90;;;;;;5074166;28;20384;-85
2022/04/13 04:43:59;;;;;;;5.65;4.10;;;11.30;99.90;;;;;;5055233;28;20392;-84
2022/04/13 04:46:24;;;;;;;4.90;4.00;;;11.20;99.90;;;;;;5073463;28;20923;-84
2022/04/13 04:48:50;;;;;;;6.77;3.87;;;11.20;99.90;;;;;;5073357;28;20411;-84
2022/04/13 04:51:15;;;;;;;5.23;3.83;;;11.20;99.90;;;;;;5055049;28;20391;-85
2022/04/13 04:53:41;;;;;;;6.73;3.80;;;11.10;99.90;;;;;;5073032;28;20524;-85
2022/04/13 04:56:07;;;;;;;4.88;3.42;;;10.90;99.90;;;;;;5072972;28;20495;-85
2022/04/13 04:58:33;;;;;;;4.60;3.40;;;11.20;99.90;;;;;;5072902;28;20384;-84
2022/04/13 05:00:59;;;;;;;4.07;3.63;;;11.30;99.90;;;;;;5072794;28;20744;-84
2022/04/13 05:03:24;;;;;;;7.90;3.90;;;11.00;99.90;;;;;;5072875;28;20756;-84
2022/04/13 05:05:51;;;;;;;5.57;3.70;;;11.10;99.90;;;;;;5072830;28;20856;-84
2022/04/13 05:08:16;;;;;;;6.80;3.50;;;11.20;99.90;;;;;;5072815;28;20790;-84
2022/04/13 05:10:47;;;;;;;4.40;4.00;;;11.20;99.90;;;;;;5072698;28;20459;-84
2022/04/13 05:13:13;;;;;;;4.25;3.50;;;11.10;99.90;;;;;;5054769;28;20407;-84
2022/04/13 05:15:41;;;;;;;4.78;3.13;;;11.00;99.90;;;;;;5072709;28;20392;-84
2022/04/13 05:18:07;;;;;;;5.70;3.57;;;11.00;99.90;;;;;;5072530;28;20384;-84
2022/04/13 05:20:32;;;;;;;5.93;3.70;;;11.00;99.90;;;;;;5072502;28;20387;-84
2022/04/13 05:22:58;;;;;;;6.00;4.23;;;11.00;99.90;;;;;;5072510;28;20388;-84
2022/04/13 05:25:23;;;;;;;4.23;3.70;;;11.00;99.90;;;;;;5072367;28;20480;-84
2022/04/13 05:27:49;;;;;;;5.50;4.05;;;10.90;99.90;;;;;;5072333;28;20884;-84
2022/04/13 05:30:15;;;;;;;6.45;4.68;;;10.80;99.90;;;;;;5072270;28;20410;-83
2022/04/13 05:32:57;;;;;;;5.18;3.88;;;10.90;99.90;;;;;;5070697;28;20407;-82
2022/04/13 05:35:25;;;;;;;5.68;4.22;;;11.00;99.90;;;;;;5071550;28;20391;-82
2022/04/13 05:37:52;;;;;;;4.85;4.45;;;11.00;99.90;;;;;;5072606;28;20380;-83
2022/04/13 05:40:18;;;;;;;5.15;4.65;;;11.00;99.90;;;;;;5072240;28;20380;-82
2022/04/13 05:42:44;;;;;;;6.00;5.20;;;11.00;99.90;;;;;;5055059;28;20584;-82
2022/04/13 05:45:10;;;;;;;5.18;4.78;;;11.10;99.90;;;;;;5072294;28;20868;-82
2022/04/13 05:47:37;;;;;;;6.65;4.20;;;11.20;99.90;;;;;;5072201;28;20403;-82
2022/04/13 05:50:03;;;;;;;6.28;4.88;;;11.30;99.90;;;;;;5054129;28;20384;-82
2022/04/13 05:52:29;;;;;;;5.75;4.53;;;11.40;99.90;;;;;;5054940;28;20457;-82
2022/04/13 05:54:55;;;;;;;7.63;4.45;;;11.40;99.90;;;;;;5072427;28;20748;-83
2022/04/13 05:57:20;;;;;;;7.13;4.82;;;11.10;99.90;;;;;;5072144;28;20426;-83
2022/04/13 05:59:46;;;;;;;7.23;4.47;;;11.50;99.90;;;;;;5058400;22;20572;-84
2022/04/13 06:02:11;;;;;;;5.50;4.90;;;11.70;99.90;;;;;;5032462;28;20394;-83
2022/04/13 06:04:37;;;;;;;5.33;4.40;;;11.90;99.90;;;;;;5032328;28;20756;-84
2022/04/13 06:07:03;;;;;;;5.53;4.03;;;12.00;99.90;;;;;;5032437;28;20847;-83
2022/04/13 06:09:29;;;;;;;6.87;3.83;;;11.90;99.90;;;;;;5032235;28;20408;-83
2022/04/13 06:11:54;;;;;;;4.90;3.90;;;11.90;99.90;;;;;;5030964;28;20449;-84
2022/04/13 06:14:20;;;;;;;4.23;3.83;;;11.90;99.90;;;;;;5032355;28;20461;-84
2022/04/13 06:16:46;;;;;;;6.40;4.30;;;12.00;99.90;;;;;;5032281;28;20402;-82
2022/04/13 06:19:12;;;;;;;4.60;4.20;;;12.20;99.90;;;;;;5032254;28;20860;-84
2022/04/13 06:21:37;;;;;;;5.20;4.70;;;12.10;99.90;;;;;;5032155;28;20390;-83
2022/04/13 06:24:03;;;;;;;6.10;5.60;;;12.00;99.90;;;;;;5032563;28;20387;-84
2022/04/13 06:26:29;;;;;;;8.20;6.30;;;11.90;99.90;;;;;;5032228;28;20391;-84
2022/04/13 06:28:54;;;;;;;7.23;6.53;;;11.80;99.90;;;;;;5032249;28;20429;-83
2022/04/13 06:31:20;;;;;;;8.07;7.03;;;11.90;99.90;;;;;;5032232;28;20412;-83
2022/04/13 06:33:46;;;;;;;8.93;7.27;;;11.80;99.90;;;;;;5032079;28;20416;-83
2022/04/13 06:36:12;;;;;;;7.93;6.90;;;12.00;99.90;;;;;;5032030;28;20392;-82
2022/04/13 06:38:40;;;;;;;8.77;6.60;;;12.20;99.90;;;;;;5034033;28;20384;-82
2022/04/13 06:41:07;;;;;;;9.00;7.47;;;12.30;99.90;;;;;;5035848;28;20464;-83
2022/04/13 06:43:33;;;;;;;8.35;7.55;;;12.30;99.90;;;;;;5035814;28;20876;-83
2022/04/13 06:45:58;;;;;;;8.50;6.70;;;12.50;99.90;;;;;;5035656;28;20481;-83
2022/04/13 06:48:24;;;;;;;9.17;7.33;;;12.40;99.90;;;;;;5034485;28;20399;-83
2022/04/13 06:50:50;;;;;;;10.18;7.80;;;12.40;99.90;;;;;;5035668;28;20401;-83
2022/04/13 06:53:17;;;;;;;10.48;8.07;;;12.40;99.90;;;;;;5035670;28;20403;-83
2022/04/13 06:55:43;;;;;;;8.77;7.82;;;12.30;99.90;;;;;;5035632;28;20786;-83
2022/04/13 06:58:09;;;;;;;8.23;7.43;;;12.20;99.90;;;;;;5035548;28;20798;-83
2022/04/13 07:00:35;;;;;;;10.37;7.40;;;12.40;99.90;;;;;;5035363;28;20394;-83
2022/04/13 07:03:01;;;;;;;11.20;8.38;;;12.30;99.90;;;;;;5034430;28;20450;-84
2022/04/13 07:05:27;;;;;;;13.77;10.30;;;12.40;99.90;;;;;;5035243;28;20717;-83
2022/04/13 07:07:54;;;;;;;15.45;11.73;;;12.60;99.90;;;;;;5035783;28;20398;-83
2022/04/13 07:10:20;;;;;;;17.92;11.88;;;12.40;99.90;;;;;;5035394;28;20410;-83
2022/04/13 07:12:46;;;;;;;19.90;13.83;;;12.40;99.90;;;;;;5035322;28;20406;-83
2022/04/13 07:15:12;;;;;;;13.37;10.83;;;12.40;99.90;;;;;;5035376;28;20398;-84
2022/04/13 07:17:38;;;;;;;14.23;9.98;;;12.50;99.90;;;;;;5035164;28;20867;-83
2022/04/13 07:20:04;;;;;;;12.05;9.40;;;12.50;99.90;;;;;;5035170;28;20421;-83
2022/04/13 07:22:29;;;;;;;10.48;7.80;;;12.70;99.90;;;;;;5034961;28;20422;-84
2022/04/13 07:24:55;;;;;;;9.20;8.00;;;12.80;99.90;;;;;;5035139;28;20476;-83
2022/04/13 07:27:21;;;;;;;7.95;7.15;;;12.80;99.90;;;;;;5035087;28;20905;-82
2022/04/13 07:29:46;;;;;;;8.32;7.53;;;12.90;99.90;;;;;;5034995;28;20391;-83
2022/04/13 07:32:12;;;;;;;8.73;7.55;;;13.10;99.90;;;;;;5034905;28;20410;-82
2022/04/13 07:34:38;;;;;;;8.77;7.10;;;13.00;99.90;;;;;;5034716;28;20387;-82
2022/04/13 07:37:04;;;;;;;7.97;7.17;;;13.10;99.90;;;;;;5033378;28;20387;-83
2022/04/13 07:39:30;;;;;;;8.35;7.30;;;13.20;99.90;;;;;;5034787;28;20388;-83
2022/04/13 07:41:55;;;;;;;7.67;6.77;;;13.10;99.90;;;;;;5035036;28;20393;-83
2022/04/13 07:44:21;;;;;;;8.35;6.82;;;13.10;99.90;;;;;;5035181;28;20490;-83
2022/04/13 07:46:47;;;;;;;7.53;6.83;;;13.40;99.90;;;;;;5034914;28;20460;-83
2022/04/13 07:49:12;;;;;;;7.50;6.90;;;13.50;99.90;;;;;;5032772;28;20445;-82
2022/04/13 07:51:40;;;;;;;7.40;6.70;;;13.60;99.90;;;;;;5034443;28;20407;-82
2022/04/13 07:54:06;;;;;;;8.93;6.90;;;13.50;99.90;;;;;;5034847;28;20419;-82
2022/04/13 07:56:32;;;;;;;8.20;7.07;;;13.60;99.90;;;;;;5033317;28;20398;-82
2022/04/13 07:58:58;;;;;;;7.10;6.43;;;13.80;99.90;;;;;;5034322;28;20387;-83
2022/04/13 08:01:24;;;;;;;7.80;7.00;;;13.90;99.90;;;;;;5034732;28;20379;-83
2022/04/13 08:03:50;;;;;;;12.43;7.03;;;13.90;99.90;;;;;;5033244;28;20387;-83
2022/04/13 08:06:15;;;;;;;7.73;6.87;;;13.90;99.90;;;;;;5034252;28;20399;-82
2022/04/13 08:08:41;;;;;;;13.50;6.80;;;14.10;99.90;;;;;;5034291;28;20391;-83
2022/04/13 08:11:07;;;;;;;8.73;7.07;;;14.10;99.90;;;;;;5033074;28;20392;-83
2022/04/13 08:13:33;;;;;;;7.80;7.07;;;14.10;99.90;;;;;;5034170;28;20419;-83
2022/04/13 08:15:59;;;;;;;10.77;7.37;;;14.20;99.90;;;;;;5034457;28;20384;-83
2022/04/13 08:18:25;;;;;;;8.13;6.97;;;14.20;99.90;;;;;;5034044;28;20387;-82
2022/04/13 08:20:50;;;;;;;9.10;7.32;;;14.20;99.90;;;;;;5033986;28;20395;-83
2022/04/13 08:23:16;;;;;;;7.70;6.88;;;14.40;99.90;;;;;;5033920;28;20398;-83
2022/04/13 08:25:42;;;;;;;7.25;6.65;;;14.50;99.90;;;;;;5033893;28;20471;-83
2022/04/13 08:28:08;;;;;;;8.07;7.28;;;14.50;99.90;;;;;;5034098;28;20748;-83
2022/04/13 08:30:34;;;;;;;7.73;6.90;;;14.50;99.90;;;;;;5033822;28;20513;-83
2022/04/13 08:32:59;;;;;;;8.60;7.80;;;14.70;99.90;;;;;;5034225;28;20430;-83
2022/04/13 08:35:25;;;;;;;7.93;7.23;;;14.70;99.90;;;;;;5033736;28;20471;-83
2022/04/13 08:37:51;;;;;;;8.23;7.33;;;14.80;99.90;;;;;;5033721;28;20898;-83
2022/04/13 08:40:21;;;;;;;8.77;7.87;;;14.90;99.90;;;;;;5033514;28;20474;-83
2022/04/13 08:43:09;;;;;;;7.97;7.18;;;15.00;99.90;;;;;;5033998;28;20445;-83
2022/04/13 08:45:40;;;;;;;8.98;6.78;;;15.10;99.90;;;;;;5033515;28;20425;-83
2022/04/13 08:48:11;;;;;;;8.25;6.78;;;15.30;99.90;;;;;;5033616;28;20462;-83
2022/04/13 08:50:38;;;;;;;7.38;6.68;;;15.40;99.90;;;;;;5032249;28;20395;-82
2022/04/13 08:53:09;;;;;;;9.80;7.45;;;15.50;99.90;;;;;;5033515;28;20498;-83
2022/04/13 08:55:36;;;;;;;7.35;6.68;;;15.60;99.90;;;;;;5033386;28;20367;-83
2022/04/13 08:58:15;;;;;;;7.55;6.85;;;15.60;99.90;;;;;;5033340;28;20383;-83
2022/04/13 09:00:48;;;;;;;11.05;9.90;;;15.70;99.90;;;;;;5032460;28;20469;-83
2022/04/13 09:03:40;;;;;;;8.13;7.32;;;15.80;99.90;;;;;;5033421;28;20871;-84
2022/04/13 09:06:09;;;;;;;7.63;6.93;;;15.90;99.90;;;;;;5033510;28;20736;-84
2022/04/13 09:08:59;;;;;;;7.35;6.65;;;16.10;99.90;;;;;;5033096;28;20879;-83
2022/04/13 09:11:27;;;;;;;7.90;7.10;;;16.10;99.90;;;;;;5033365;28;20387;-83
2022/04/13 09:13:53;;;;;;;12.88;7.35;;;16.40;99.90;;;;;;5032075;28;20473;-83
2022/04/13 09:16:19;;;;;;;19.17;7.95;;;16.50;99.90;;;;;;5033014;28;20879;-84
2022/04/13 09:18:45;;;;;;;15.40;7.78;;;16.50;99.90;;;;;;5033108;28;20744;-84
2022/04/13 09:21:13;;;;;;;16.70;7.97;;;16.60;99.90;;;;;;5032923;28;20408;-83
2022/04/13 09:23:39;;;;;;;28.50;8.55;;;16.70;99.90;;;;;;5031702;28;20406;-84
2022/04/13 09:26:07;;;;;;;14.40;7.43;;;16.80;99.90;;;;;;5031877;28;20379;-83
2022/04/13 09:28:33;;;;;;;8.13;7.07;;;16.80;99.90;;;;;;5033142;28;20391;-84
2022/04/13 09:31:00;;;;;;;9.23;7.38;;;16.80;99.90;;;;;;5032732;28;20470;-84
2022/04/13 09:33:26;;;;;;;9.18;7.30;;;17.00;99.90;;;;;;5032624;28;20978;-85
2022/04/13 09:35:53;;;;;;;7.43;6.72;;;17.10;99.90;;;;;;5032811;28;20475;-84
2022/04/13 09:38:19;;;;;;;7.93;7.22;;;17.20;99.90;;;;;;5032912;28;20422;-84
2022/04/13 09:40:45;;;;;;;8.68;7.28;;;17.40;99.90;;;;;;5033358;28;20919;-84
2022/04/13 09:43:16;;;;;;;8.10;6.65;;;17.60;99.90;;;;;;5032706;28;20470;-85
2022/04/13 09:45:47;;;;;;;7.88;6.70;;;17.70;99.90;;;;;;5032580;28;20383;-85
2022/04/13 09:48:15;;;;;;;10.43;7.20;;;17.80;99.90;;;;;;5031845;28;20465;-85
2022/04/13 09:50:43;;;;;;;8.93;7.05;;;18.00;99.90;;;;;;5032738;28;20575;-84
2022/04/13 09:53:11;;;;;;;8.02;6.95;;;18.20;99.90;;;;;;5034652;28;20410;-84
2022/04/13 09:55:42;;;;;;;8.00;6.40;;;18.50;99.90;;;;;;5034326;28;20390;-85
2022/04/13 09:58:32;;;;;;;9.10;7.00;;;18.80;99.90;;;;;;5032809;28;20384;-84
2022/04/13 10:01:02;;;;;;;7.57;6.82;;;18.80;99.90;;;;;;5033879;28;20741;-87
2022/04/13 10:03:28;;;;;;;8.52;6.53;;;18.90;99.90;;;;;;5033229;28;20400;-86
2022/04/13 10:05:56;;;;;;;7.57;6.30;;;19.10;99.90;;;;;;5033859;28;20387;-84
2022/04/13 10:08:24;;;;;;;7.22;6.03;;;19.10;99.90;;;;;;5032474;28;20387;-85
2022/04/13 10:10:56;;;;;;;8.30;6.13;;;19.30;99.90;;;;;;5032272;28;20741;-84
2022/04/13 10:13:33;;;;;;;8.82;6.32;;;19.50;99.90;;;;;;5035568;28;20887;-84
2022/04/13 10:16:04;;;;;;;6.93;6.13;;;19.70;99.90;;;;;;5036344;28;20461;-85
2022/04/13 10:18:32;;;;;;;7.18;6.00;;;19.80;99.90;;;;;;5036736;28;20371;-85
2022/04/13 10:20:58;;;;;;;7.40;6.65;;;20.00;99.90;;;;;;5036233;28;20486;-85
2022/04/13 10:23:24;;;;;;;8.55;5.97;;;20.30;99.90;;;;;;5036161;28;20465;-85
2022/04/13 10:26:08;;;;;;;7.03;5.37;;;20.50;99.90;;;;;;5036152;28;20394;-85
2022/04/13 10:28:33;;;;;;;7.00;5.70;;;20.50;99.90;;;;;;5036472;28;20831;-86
2022/04/13 10:31:08;;;;;;;7.57;6.07;;;20.60;99.90;;;;;;5036040;28;20487;-85
2022/04/13 10:33:45;;;;;;;7.82;5.82;;;20.70;99.90;;;;;;5035916;28;20406;-84
2022/04/13 10:36:11;;;;;;;7.63;5.57;;;20.80;99.90;;;;;;5036158;28;20414;-85
2022/04/13 10:38:37;;;;;;;8.33;6.30;;;20.90;99.90;;;;;;5036463;28;20414;-85
2022/04/13 10:41:03;;;;;;;10.27;8.20;;;21.00;99.90;;;;;;5035860;28;20740;-84
2022/04/13 10:43:29;;;;;;;10.43;6.75;;;20.90;99.90;;;;;;5034368;28;20402;-85
2022/04/13 10:45:57;;;;;;;10.63;7.22;;;21.20;99.90;;;;;;5035820;28;20802;-85
2022/04/13 10:48:31;;;;;;;9.98;7.03;;;21.40;99.90;;;;;;5035772;28;20387;-85
2022/04/13 10:51:06;;;;;;;9.27;7.40;;;21.60;99.90;;;;;;5035560;28;20820;-85
2022/04/13 10:53:52;;;;;;;9.33;6.80;;;21.80;99.90;;;;;;5035535;28;20402;-85
2022/04/13 10:56:20;;;;;;;9.52;6.55;;;21.80;99.90;;;;;;5035939;28;20785;-84
2022/04/13 10:59:01;;;;;;;6.75;4.90;;;22.00;99.90;;;;;;5035455;28;20386;-85
2022/04/13 11:01:35;;;;;;;7.07;4.60;;;22.10;99.90;;;;;;5035215;28;20400;-85
2022/04/13 11:04:01;;;;;;;9.88;4.95;;;22.20;99.90;;;;;;5035122;28;20403;-84
2022/04/13 11:06:28;;;;;;;7.68;4.68;;;22.20;99.90;;;;;;5035485;28;20383;-85
2022/04/13 11:09:25;;;;;;;6.45;4.57;;;22.00;99.90;;;;;;5035346;28;20415;-85
2022/04/13 11:11:55;;;;;;;5.47;4.25;;;22.00;99.90;;;;;;5031984;28;20415;-85
2022/04/13 11:14:22;;;;;;;5.32;4.45;;;22.30;99.90;;;;;;5035313;28;20383;-85
2022/04/13 11:17:07;;;;;;;7.93;4.75;;;22.40;99.90;;;;;;5035231;28;20376;-85
2022/04/13 11:19:33;;;;;;;13.68;4.70;;;22.50;99.90;;;;;;5035062;28;20379;-85
2022/04/13 11:21:59;;;;;;;8.15;4.75;;;22.60;99.90;;;;;;5035161;28;20415;-85
2022/04/13 11:24:31;;;;;;;5.25;4.20;;;22.90;99.90;;;;;;5034461;28;20513;-85
2022/04/13 11:26:57;;;;;;;5.90;3.85;;;23.20;99.90;;;;;;5035106;28;20444;-86
2022/04/13 11:29:23;;;;;;;4.47;3.80;;;23.30;99.90;;;;;;5035123;28;20779;-85
2022/04/13 11:32:10;;;;;;;4.55;3.70;;;23.50;99.90;;;;;;5035202;28;20442;-85
2022/04/13 11:34:57;;;;;;;9.15;6.35;;;23.80;99.90;;;;;;5027769;28;20395;-86
2022/04/13 11:37:35;;;;;;;5.80;3.93;;;23.80;99.90;;;;;;5035025;28;20485;-85
2022/04/13 11:40:06;;;;;;;5.25;3.95;;;23.60;99.90;;;;;;5034811;28;20395;-85
2022/04/13 11:42:35;;;;;;;15.35;4.72;;;23.70;99.90;;;;;;5034756;28;20394;-85
2022/04/13 11:45:16;;;;;;;7.10;4.07;;;23.60;99.90;;;;;;5034704;28;20383;-85
2022/04/13 11:47:58;;;;;;;5.40;3.88;;;23.80;99.90;;;;;;5034674;28;20371;-84
2022/04/13 11:50:26;;;;;;;6.67;3.40;;;24.00;99.90;;;;;;5034694;28;20383;-85
2022/04/13 11:53:02;;;;;;;4.95;3.58;;;24.10;99.90;;;;;;5034840;28;20486;-85
2022/04/13 11:55:35;;;;;;;5.70;3.22;;;24.30;99.90;;;;;;5034746;28;20423;-85
2022/04/13 11:58:20;;;;;;;4.97;2.60;;;24.50;98.80;;;;;;5034683;28;20724;-84
2022/04/13 12:01:08;;;;;;;6.00;2.70;;;24.60;99.10;;;;;;5051426;22;20813;-87
2022/04/13 12:03:39;;;;;;;3.53;2.80;;;24.80;98.50;;;;;;5053142;28;20386;-86
2022/04/13 12:06:10;;;;;;;5.10;2.95;;;25.10;97.80;;;;;;5036072;28;20953;-87
2022/04/13 12:08:40;;;;;;;4.45;2.70;;;25.10;97.50;;;;;;5054008;28;20394;-87
2022/04/13 12:11:14;;;;;;;4.85;3.03;;;24.90;97.10;;;;;;5053788;28;20440;-87
2022/04/13 12:13:59;;;;;;;5.10;3.10;;;24.80;98.10;;;;;;5054438;28;20452;-87
2022/04/13 12:16:33;;;;;;;5.82;3.25;;;24.80;99.20;;;;;;5054123;28;20905;-87
2022/04/13 12:19:11;;;;;;;4.57;3.13;;;25.00;98.20;;;;;;5052331;28;20807;-86
2022/04/13 12:21:39;;;;;;;4.32;3.20;;;25.10;97.00;;;;;;5053800;28;20409;-86
2022/04/13 12:24:06;;;;;;;5.15;3.08;;;25.10;97.30;;;;;;5054005;28;20378;-86
2022/04/13 12:26:42;;;;;;;6.72;3.53;;;24.70;97.90;;;;;;5053655;28;20382;-88
2022/04/13 12:29:13;;;;;;;4.70;3.00;;;24.80;97.10;;;;;;5053862;28;20480;-87
2022/04/13 12:31:51;;;;;;;4.53;3.50;;;25.00;97.10;;;;;;5053455;28;20386;-88
2022/04/13 12:34:18;;;;;;;5.00;3.28;;;25.30;97.80;;;;;;5053489;28;20393;-86
2022/04/13 12:36:55;;;;;;;4.47;2.90;;;25.20;97.50;;;;;;5052685;28;20448;-88
2022/04/13 12:39:29;;;;;;;6.60;3.50;;;25.30;96.60;;;;;;5053403;28;20381;-86
2022/04/13 12:41:55;;;;;;;7.07;3.30;;;25.40;97.00;;;;;;5053669;28;20480;-87
2022/04/13 12:44:21;;;;;;;7.73;3.43;;;25.50;95.90;;;;;;5052140;28;21012;-88
2022/04/13 12:46:47;;;;;;;4.00;2.97;;;25.50;96.00;;;;;;5052154;28;20396;-87
2022/04/13 12:49:20;;;;;;;7.30;3.30;;;25.40;96.00;;;;;;5053089;28;20393;-87
2022/04/13 12:51:46;;;;;;;3.85;2.78;;;25.10;95.50;;;;;;5053132;28;20905;-87